createdAt,value
2019-01-21T00:01:48.049Z,98370.98
2019-01-21T00:04:36.996Z,98371.56
2019-01-21T00:07:25.887Z,98367.53
2019-01-21T00:10:14.768Z,98368.95
2019-01-21T00:19:13.276Z,98375.80
2019-01-21T00:24:56.480Z,98086.45
2019-01-21T00:27:45.328Z,98371.08
2019-01-21T00:30:26.904Z,98369.84
2019-01-21T00:33:15.713Z,98362.76
2019-01-21T00:36:04.580Z,98371.83
2019-01-21T00:38:53.403Z,98362.73
2019-01-21T00:41:42.201Z,98060.59
2019-01-21T00:44:24.251Z,98371.27
2019-01-21T00:47:13.047Z,98369.56
2019-01-21T00:50:01.861Z,98371.74
2019-01-21T00:52:50.727Z,98378.13
2019-01-21T00:55:39.609Z,98373.39
2019-01-21T00:58:28.420Z,98368.50
2019-01-21T01:01:17.295Z,98367.45
2019-01-21T01:04:06.670Z,98067.88
2019-01-21T01:06:55.553Z,98372.74
2019-01-21T01:09:44.399Z,98372.00
2019-01-21T01:12:33.248Z,98373.33
2019-01-21T01:15:22.103Z,98380.33
2019-01-21T01:18:11.067Z,98384.55
2019-01-21T01:20:59.933Z,98377.34
2019-01-21T01:23:48.873Z,98375.80
2019-01-21T01:26:38.161Z,98376.54
2019-01-21T01:29:46.038Z,98382.30
2019-01-21T01:32:27.648Z,98386.56
2019-01-21T01:38:31.280Z,98384.91
2019-01-21T01:41:20.131Z,98390.30
2019-01-21T01:47:16.756Z,98380.42
2019-01-21T01:50:26.539Z,98384.14
2019-01-21T01:56:23.234Z,98385.86
2019-01-21T01:59:12.119Z,98390.61
2019-01-21T02:02:00.984Z,98395.77
2019-01-21T02:04:49.884Z,98424.72
2019-01-21T02:07:38.698Z,98193.10
2019-01-21T02:10:27.778Z,98392.98
2019-01-21T02:13:16.609Z,98053.20
2019-01-21T02:16:05.492Z,98394.33
2019-01-21T02:18:54.291Z,98393.81
2019-01-21T02:24:58.969Z,98400.67
2019-01-21T02:28:28.196Z,98345.50
2019-01-21T02:31:40.931Z,98393.85
2019-01-21T02:34:48.978Z,98387.75
2019-01-21T02:38:16.486Z,98054.05
2019-01-21T02:41:26.237Z,98392.81
2019-01-21T02:44:53.746Z,98030.90
2019-01-21T02:48:03.460Z,98187.39
2019-01-21T02:51:30.960Z,98382.78
2019-01-21T02:54:58.464Z,98390.84
2019-01-21T02:58:25.946Z,98386.06
2019-01-21T03:01:35.666Z,98385.72
2019-01-21T03:05:03.176Z,98374.00
2019-01-21T03:08:12.929Z,98382.28
2019-01-21T03:11:22.650Z,98389.70
2019-01-21T03:14:32.353Z,98103.28
2019-01-21T03:17:42.128Z,98382.61
2019-01-21T03:21:09.644Z,98385.32
2019-01-21T03:24:37.136Z,98382.66
2019-01-21T03:27:46.853Z,98051.56
2019-01-21T03:34:13.056Z,98263.70
2019-01-21T03:36:59.347Z,98181.95
2019-01-21T03:40:26.954Z,98386.91
2019-01-21T03:43:54.469Z,98386.42
2019-01-21T03:46:37.841Z,98386.11
2019-01-21T03:50:05.568Z,98391.96
2019-01-21T03:53:15.337Z,98387.73
2019-01-21T03:56:25.261Z,98384.06
2019-01-21T03:59:35.011Z,98385.58
2019-01-21T04:02:44.805Z,98376.84
2019-01-21T04:05:54.604Z,98381.38
2019-01-21T04:09:22.176Z,98382.44
2019-01-21T04:12:31.973Z,98058.90
2019-01-21T04:15:41.834Z,98391.14
2019-01-21T04:18:51.574Z,98397.74
2019-01-21T04:22:19.125Z,98393.30
2019-01-21T04:25:28.835Z,98390.44
2019-01-21T04:28:56.323Z,98390.66
2019-01-21T04:32:06.052Z,98051.55
2019-01-21T04:35:15.752Z,98403.51
2019-01-21T04:38:43.260Z,98393.47
2019-01-21T04:41:53.158Z,98391.14
2019-01-21T04:45:20.641Z,98194.53
2019-01-21T04:48:03.841Z,98410.33
2019-01-21T04:51:13.548Z,98256.39
2019-01-21T04:54:25.037Z,98407.69
2019-01-21T04:57:52.524Z,98319.56
2019-01-21T05:01:02.302Z,98413.94
2019-01-21T05:04:29.805Z,98412.53
2019-01-21T05:07:57.297Z,98414.14
2019-01-21T05:11:07.065Z,98410.89
2019-01-21T05:14:34.537Z,98414.16
2019-01-21T05:17:44.260Z,98410.95
2019-01-21T05:21:11.760Z,98405.69
2019-01-21T05:24:21.514Z,98406.06
2019-01-21T05:27:49.029Z,98399.41
2019-01-21T05:31:16.569Z,98404.11
2019-01-21T05:34:26.335Z,98255.16
2019-01-21T05:37:36.105Z,98408.37
2019-01-21T05:40:45.852Z,98148.63
2019-01-21T05:43:55.625Z,98407.56
2019-01-21T05:47:23.130Z,98413.88
2019-01-21T05:50:32.853Z,98401.40
2019-01-21T05:54:00.601Z,98042.36
2019-01-21T05:57:10.328Z,98400.67
2019-01-21T06:00:37.841Z,98418.26
2019-01-21T06:04:05.578Z,98411.50
2019-01-21T06:07:33.092Z,98424.55
2019-01-21T06:10:42.819Z,98415.09
2019-01-21T06:13:52.615Z,98414.13
2019-01-21T06:17:02.323Z,98419.98
2019-01-21T06:20:29.837Z,98206.93
2019-01-21T06:23:57.327Z,98419.02
2019-01-21T06:27:24.837Z,98261.26
2019-01-21T06:30:34.588Z,98410.91
2019-01-21T06:34:02.099Z,98410.91
2019-01-21T06:36:47.755Z,98414.69
2019-01-21T06:39:57.510Z,98417.08
2019-01-21T06:43:25.024Z,98109.85
2019-01-21T06:46:52.776Z,98404.92
2019-01-21T06:50:20.262Z,98414.66
2019-01-21T06:53:47.752Z,98425.25
2019-01-21T06:57:15.261Z,98425.95
2019-01-21T07:00:42.779Z,98427.32
2019-01-21T07:03:52.653Z,98435.78
2019-01-21T07:07:20.134Z,98104.95
2019-01-21T07:10:47.629Z,98441.95
2019-01-21T07:14:15.144Z,98135.88
2019-01-21T07:20:55.160Z,98429.66
2019-01-21T07:24:04.971Z,98431.33
2019-01-21T07:27:14.682Z,98402.88
2019-01-21T07:30:42.169Z,98300.06
2019-01-21T07:33:51.907Z,98439.23
2019-01-21T07:36:37.836Z,98108.10
2019-01-21T07:40:05.347Z,98447.92
2019-01-21T07:43:15.111Z,98116.46
2019-01-21T07:46:24.842Z,98449.28
2019-01-21T07:49:52.330Z,98462.59
2019-01-21T07:53:19.843Z,98454.75
2019-01-21T07:56:29.562Z,98152.46
2019-01-21T07:59:57.087Z,98455.75
2019-01-21T08:03:06.908Z,98306.59
2019-01-21T08:06:16.617Z,98453.41
2019-01-21T08:09:26.381Z,98457.66
2019-01-21T08:12:53.892Z,98173.03
2019-01-21T08:16:21.380Z,98263.72
2019-01-21T08:19:48.886Z,98467.48
2019-01-21T08:23:16.379Z,98464.93
2019-01-21T08:26:26.147Z,98326.94
2019-01-21T08:29:53.638Z,98463.01
2019-01-21T08:33:21.145Z,98465.47
2019-01-21T08:39:23.149Z,98469.59
2019-01-21T08:42:51.002Z,98472.80
2019-01-21T08:46:21.476Z,98391.05
2019-01-21T08:49:30.765Z,98437.90
2019-01-21T08:52:59.170Z,98232.91
2019-01-21T08:56:09.038Z,98201.65
2019-01-21T08:59:18.709Z,98461.75
2019-01-21T09:02:28.427Z,98168.88
2019-01-21T09:05:55.931Z,98474.66
2019-01-21T09:09:05.634Z,98478.20
2019-01-21T09:12:15.349Z,98209.41
2019-01-21T09:15:42.858Z,98475.56
2019-01-21T09:19:10.366Z,98264.38
2019-01-21T09:22:20.126Z,98486.41
2019-01-21T09:25:29.843Z,98208.19
2019-01-21T09:28:39.593Z,98308.14
2019-01-21T09:31:49.329Z,98495.86
2019-01-21T09:35:16.814Z,98489.77
2019-01-21T09:38:25.481Z,98488.61
2019-01-21T09:41:35.193Z,98481.89
2019-01-21T09:44:45.267Z,98362.05
2019-01-21T09:47:33.025Z,98488.70
2019-01-21T09:50:21.831Z,98183.19
2019-01-21T09:53:10.699Z,98492.40
2019-01-21T09:55:59.529Z,98492.19
2019-01-21T10:02:38.215Z,98497.95
2019-01-21T10:05:47.942Z,98499.25
2019-01-21T10:09:15.451Z,98494.42
2019-01-21T10:12:42.940Z,98494.42
2019-01-21T10:15:52.710Z,98494.75
2019-01-21T10:19:20.212Z,98486.14
2019-01-21T10:22:29.932Z,98475.39
2019-01-21T10:25:57.417Z,98464.48
2019-01-21T10:29:24.931Z,98465.81
2019-01-21T10:32:52.450Z,98202.86
2019-01-21T10:36:02.148Z,98461.56
2019-01-21T10:39:04.015Z,98185.33
2019-01-21T10:42:31.505Z,98451.95
2019-01-21T10:45:59.062Z,98441.75
2019-01-21T10:49:08.768Z,98445.15
2019-01-21T10:52:36.273Z,98437.73
2019-01-21T10:56:03.780Z,98149.78
2019-01-21T10:59:13.848Z,98421.73
2019-01-21T11:02:23.548Z,98250.04
2019-01-21T11:05:33.287Z,98409.65
2019-01-21T11:09:00.781Z,98404.59
2019-01-21T11:12:10.508Z,98397.06
2019-01-21T11:15:20.235Z,98382.42
2019-01-21T11:18:47.742Z,98378.83
2019-01-21T11:21:57.447Z,98393.36
2019-01-21T11:25:07.175Z,98109.53
2019-01-21T11:28:34.665Z,98388.16
2019-01-21T11:32:02.184Z,98077.41
2019-01-21T11:35:11.911Z,98375.24
2019-01-21T11:38:21.901Z,98375.08
2019-01-21T11:41:04.969Z,98363.70
2019-01-21T11:44:32.478Z,98147.92
2019-01-21T11:47:42.176Z,98363.96
2019-01-21T11:51:09.750Z,98064.63
2019-01-21T11:54:37.311Z,98359.16
2019-01-21T11:58:04.811Z,98348.73
2019-01-21T12:01:32.294Z,98343.38
2019-01-21T12:04:42.051Z,98345.06
2019-01-21T12:07:51.804Z,98147.81
2019-01-21T12:11:19.296Z,98329.94
2019-01-21T12:14:46.809Z,98162.45
2019-01-21T12:18:14.311Z,98318.20
2019-01-21T12:21:41.793Z,98314.05
2019-01-21T12:24:30.667Z,98072.73
2019-01-21T12:27:40.389Z,98312.09
2019-01-21T12:30:50.137Z,98310.48
2019-01-21T12:34:17.641Z,98307.52
2019-01-21T12:37:45.136Z,98302.19
2019-01-21T12:40:46.642Z,98298.91
2019-01-21T12:44:14.187Z,98302.34
2019-01-21T12:47:23.883Z,98285.40
2019-01-21T12:50:51.381Z,98290.71
2019-01-21T12:54:01.081Z,98292.45
2019-01-21T12:57:28.580Z,98283.70
2019-01-21T13:00:56.061Z,98278.55
2019-01-21T13:04:23.585Z,98273.31
2019-01-21T13:07:33.300Z,98263.00
2019-01-21T13:10:43.013Z,98256.88
2019-01-21T13:13:52.712Z,98258.36
2019-01-21T13:17:20.208Z,98043.60
2019-01-21T13:20:30.709Z,98254.20
2019-01-21T13:23:41.353Z,98250.38
2019-01-21T13:26:51.073Z,98249.44
2019-01-21T13:30:02.381Z,98032.16
2019-01-21T13:33:12.221Z,98243.94
2019-01-21T13:36:21.989Z,98248.38
2019-01-21T13:39:31.689Z,98020.29
2019-01-21T13:42:14.919Z,98230.88
2019-01-21T13:45:42.391Z,98227.85
2019-01-21T13:48:52.109Z,98239.23
2019-01-21T13:52:01.805Z,98226.86
2019-01-21T13:55:11.531Z,98229.17
2019-01-21T13:58:21.315Z,98224.65
2019-01-21T14:01:48.793Z,98221.12
2019-01-21T14:05:16.291Z,98218.58
2019-01-21T14:08:43.795Z,98210.41
2019-01-21T14:12:11.292Z,98212.17
2019-01-21T14:15:38.775Z,98213.52
2019-01-21T14:19:06.581Z,98070.69
2019-01-21T14:22:34.064Z,98213.41
2019-01-21T14:26:01.557Z,98201.42
2019-01-21T14:29:03.055Z,98198.31
2019-01-21T14:32:12.754Z,98186.55
2019-01-21T14:35:40.256Z,98178.05
2019-01-21T14:38:49.999Z,98174.58
2019-01-21T14:41:57.943Z,98175.06
2019-01-21T14:45:25.445Z,98169.36
2019-01-21T14:48:53.192Z,98167.23
2019-01-21T14:52:02.893Z,98089.52
2019-01-21T14:55:30.415Z,98159.02
2019-01-21T14:58:57.911Z,98160.55
2019-01-21T15:02:25.404Z,98164.06
2019-01-21T15:05:35.086Z,97910.80
2019-01-21T15:08:44.857Z,97957.91
2019-01-21T15:12:12.376Z,98177.89
2019-01-21T15:15:39.931Z,97925.62
2019-01-21T15:18:49.692Z,98177.34
2019-01-21T15:22:17.240Z,98173.23
2019-01-21T15:25:26.973Z,98191.09
2019-01-21T15:28:28.115Z,97919.15
2019-01-21T15:31:37.897Z,98187.05
2019-01-21T15:34:47.912Z,98006.62
2019-01-21T15:38:15.854Z,98179.37
2019-01-21T15:41:43.460Z,98178.81
2019-01-21T15:45:10.987Z,98184.06
2019-01-21T15:48:38.500Z,98178.45
2019-01-21T15:51:48.199Z,98179.59
2019-01-21T15:54:57.931Z,98180.97
2019-01-21T15:58:25.413Z,98186.24
2019-01-21T16:01:52.911Z,98186.56
2019-01-21T16:05:02.616Z,98178.23
2019-01-21T16:08:12.324Z,98066.85
2019-01-21T16:11:39.830Z,98186.92
2019-01-21T16:14:49.550Z,98188.59
2019-01-21T16:18:17.034Z,98190.23
2019-01-21T16:21:27.097Z,98187.77
2019-01-21T16:24:54.565Z,98182.86
2019-01-21T16:28:04.301Z,98175.23
2019-01-21T16:30:47.191Z,98170.48
2019-01-21T16:33:56.949Z,98170.80
2019-01-21T16:37:06.727Z,98170.25
2019-01-21T16:40:16.431Z,98159.45
2019-01-21T16:43:05.313Z,98125.22
2019-01-21T16:45:54.119Z,98146.80
2019-01-21T16:48:42.931Z,98144.23
2019-01-21T16:51:31.737Z,98141.01
2019-01-21T16:54:20.555Z,98138.88
2019-01-21T17:00:17.192Z,98140.69
2019-01-21T17:03:06.010Z,98137.17
2019-01-21T17:05:54.832Z,98142.64
2019-01-21T17:08:43.639Z,98149.87
2019-01-21T17:11:32.455Z,98152.38
2019-01-21T17:14:21.269Z,97824.86
2019-01-21T17:20:00.608Z,98150.79
2019-01-21T17:22:49.401Z,98145.95
2019-01-21T17:25:38.220Z,98145.00
2019-01-21T17:28:27.085Z,98132.88
2019-01-21T17:31:15.899Z,98055.60
2019-01-21T17:34:04.765Z,97955.31
2019-01-21T17:36:53.619Z,98129.70
2019-01-21T17:39:42.420Z,98132.61
2019-01-21T17:42:31.242Z,98134.61
2019-01-21T17:48:29.521Z,98132.23
2019-01-21T17:51:18.386Z,98040.58
2019-01-21T17:57:02.019Z,98137.19
2019-01-21T17:59:50.837Z,98141.35
2019-01-21T18:02:39.656Z,98149.42
2019-01-21T18:08:36.223Z,98135.73
2019-01-21T18:11:25.022Z,98140.87
2019-01-21T18:14:13.834Z,98140.83
2019-01-21T18:17:02.629Z,98045.67
2019-01-21T18:19:51.449Z,98145.10
2019-01-21T18:22:40.501Z,98147.66
2019-01-21T18:25:29.605Z,98150.64
2019-01-21T18:28:18.406Z,98152.23
2019-01-21T18:31:00.237Z,98147.50
2019-01-21T18:33:49.072Z,98141.50
2019-01-21T18:36:57.274Z,98141.97
2019-01-21T18:39:46.513Z,98141.73
2019-01-21T18:45:30.289Z,98131.17
2019-01-21T18:51:26.935Z,97816.22
2019-01-21T18:54:15.902Z,97934.02
2019-01-21T18:57:04.845Z,98121.36
2019-01-21T18:59:53.741Z,98125.52
2019-01-21T19:02:43.406Z,98123.08
2019-01-21T19:05:33.368Z,98124.50
2019-01-21T19:08:41.394Z,97901.62
2019-01-21T19:11:30.445Z,98126.70
2019-01-21T19:14:19.370Z,98115.27
2019-01-21T19:17:08.679Z,98116.86
2019-01-21T19:19:57.487Z,98116.63
2019-01-21T19:22:46.502Z,98124.23
2019-01-21T19:25:35.699Z,98121.14
2019-01-21T19:28:44.043Z,98123.20
2019-01-21T19:31:26.656Z,98021.00
2019-01-21T19:44:35.239Z,98003.16
2019-01-21T19:51:01.268Z,98106.17
2019-01-21T20:03:59.940Z,97782.87
2019-01-21T20:06:57.354Z,98104.22
2019-01-21T20:09:31.359Z,97809.52
2019-01-21T20:12:53.682Z,98025.80
2019-01-21T20:29:07.083Z,97993.38
2019-01-21T20:31:37.247Z,98082.30
2019-01-21T20:35:01.275Z,98042.87
2019-01-21T20:41:40.183Z,97723.88
2019-01-21T20:51:20.058Z,98070.30
2019-01-21T20:54:44.683Z,98069.77
2019-01-21T21:04:27.059Z,98078.20
2019-01-21T21:11:05.564Z,97968.86
2019-01-21T21:14:16.185Z,98072.87
2019-01-21T21:20:22.072Z,98073.81
2019-01-21T21:26:18.799Z,98068.45
2019-01-21T21:29:07.636Z,98057.89
2019-01-21T21:31:49.443Z,97940.37
2019-01-21T21:34:57.384Z,98067.23
2019-01-21T21:37:46.207Z,98067.67
2019-01-21T21:40:35.010Z,97763.06
2019-01-21T21:43:30.699Z,98013.97
2019-01-21T21:46:19.500Z,98053.62
2019-01-21T21:49:08.334Z,97913.33
2019-01-21T21:52:16.768Z,98053.83
2019-01-21T21:55:26.491Z,98068.32
2019-01-21T21:58:15.302Z,98048.78
2019-01-21T22:04:18.869Z,98048.73
2019-01-21T22:07:08.557Z,98049.28
2019-01-21T22:09:57.357Z,97787.77
2019-01-21T22:12:46.175Z,98052.86
2019-01-21T22:15:53.994Z,98046.25
2019-01-21T22:18:42.817Z,98040.02
2019-01-21T22:21:31.608Z,98048.55
2019-01-21T22:24:39.468Z,98046.45
2019-01-21T22:27:28.268Z,98041.39
2019-01-21T22:30:38.004Z,98035.16
2019-01-21T22:33:26.844Z,98038.77
2019-01-21T22:36:15.677Z,98018.62
2019-01-21T22:39:25.400Z,98033.60
2019-01-21T22:42:14.221Z,98032.93
2019-01-21T22:45:22.159Z,98037.53
2019-01-21T22:48:10.975Z,98035.94
2019-01-21T22:50:59.806Z,98038.62
2019-01-21T22:53:48.591Z,97992.77
2019-01-21T22:56:37.399Z,98040.52
2019-01-21T22:59:26.193Z,98036.23
2019-01-21T23:02:15.018Z,98028.58
2019-01-21T23:05:24.739Z,97825.73
2019-01-21T23:08:13.531Z,98027.91
2019-01-21T23:11:02.351Z,98020.91
2019-01-21T23:13:51.151Z,98011.23
2019-01-21T23:16:59.170Z,98016.05
2019-01-21T23:19:47.989Z,98015.47
2019-01-21T23:22:36.792Z,98008.77
2019-01-21T23:25:25.606Z,98006.63
2019-01-21T23:28:08.489Z,98005.31
2019-01-21T23:30:57.295Z,98002.35
2019-01-21T23:33:46.096Z,97996.52
2019-01-21T23:36:34.907Z,97994.96
2019-01-21T23:39:25.422Z,97647.25
2019-01-21T23:42:14.307Z,97989.89
2019-01-21T23:45:25.731Z,97989.63
2019-01-21T23:48:14.548Z,97981.09
2019-01-21T23:54:11.112Z,97964.81
2019-01-21T23:57:00.207Z,97873.75
2019-01-21T23:59:50.742Z,97963.17
